Flight Track Log - Related Links

Times and Time Zones

All times are in EDT time to prevent confusion due to time zone crossing. See the JA-801A flight status page for this flight to view local times or setup timezone preferences in your user account.

Time Position Orientation Groundspeed Altitude Reporting Facility
EDT Latitude Longitude Course Direction KTS MPH feet Rate Location/Type
Fri 02:48:43 AM 31.8720 131.4880 137° Southeast 161 185 2,200  Level FlightAware ADS-B
Fri 02:48:58 AM 31.8640 131.4960 140° Southeast 160 184 2,900 2,400 Climbing FlightAware ADS-B
Fri 02:49:23 AM 31.8490 131.5110 140° Southeast 173 199 3,800 1,745 Climbing FlightAware ADS-B
Fri 02:49:53 AM 31.8290 131.5310 140° Southeast 216 249 4,500 2,040 Climbing FlightAware ADS-B
Fri 02:51:03 AM 31.7660 131.5950 139° Southeast 271 312 7,200 2,337 Climbing FlightAware ADS-B
Fri 02:51:28 AM 31.7470 131.6250 127° Southeast 294 338 8,200 2,229 Climbing FlightAware ADS-B
Fri 02:52:13 AM 31.7580 131.6950 80° East 317 365 9,800 1,867 Climbing FlightAware ADS-B
Fri 02:52:58 AM 31.7850 131.7740 68° East 359 413 11,000 1,412 Climbing FlightAware ADS-B
Fri 02:53:38 AM 31.8110 131.8530 69° East 397 457 11,800 2,047 Climbing FlightAware ADS-B
Fri 02:54:23 AM 31.8400 131.9440 69° East 395 455 13,900 2,894 Climbing FlightAware ADS-B
Fri 02:55:03 AM 31.8660 132.0240 69° East 403 464 15,900 2,700 Climbing FlightAware ADS-B
Fri 02:55:43 AM 31.8920 132.1050 69° East 416 479 17,500 2,550 Climbing FlightAware ADS-B
Fri 02:56:23 AM 31.9200 132.1910 69° East 421 484 19,300 2,682 Climbing FlightAware ADS-B
Fri 02:57:08 AM 31.9580 132.2750 62° Northeast 417 480 21,300 2,625 Climbing FlightAware ADS-B
Fri 02:57:43 AM 31.9950 132.3510 60° Northeast 417 480 22,800 2,100 Climbing FlightAware ADS-B
Fri 02:58:28 AM 32.0400 132.4420 60° Northeast 441 507 24,100 1,800 Climbing FlightAware ADS-B
Fri 02:59:13 AM 32.0860 132.5360 60° Northeast 444 511 25,500 1,333 Climbing FlightAware ADS-B
Fri 02:59:58 AM 32.1280 132.6220 60° Northeast 444 511 26,100 1,875 Climbing FlightAware ADS-B
Fri 03:00:33 AM 32.1690 132.7060 60° Northeast 464 534 28,000 1,352 Climbing FlightAware ADS-B
Fri 03:02:20 AM 32.2830 132.9400 60° Northeast 502 578 29,300 553 Climbing FlightAware ADS-B
Fri 03:02:54 AM 32.3160 133.0080 60° Northeast 502 578 29,300  Level FlightAware ADS-B
Fri 03:03:42 AM 32.3630 133.1060 60° Northeast 502 578 29,300  Level FlightAware ADS-B
Fri 03:04:18 AM 32.3990 133.1780 59° Northeast 502 578 29,300 2,475 Level FlightAware ADS-B
Fri 03:05:02 AM 32.4900 133.3720 61° Northeast 560 644 32,600 2,831 Climbing FlightAware ADS-B
Fri 03:05:47 AM 32.5490 133.4950 60° Northeast 566 651 33,500 1,482 Climbing FlightAware ADS-B
Fri 03:06:27 AM 32.6030 133.6100 61° Northeast 563 648 34,700 1,624 Climbing FlightAware ADS-B
Fri 03:07:12 AM 32.6580 133.7250 60° Northeast 560 644 35,800 1,500 Climbing FlightAware ADS-B
Fri 03:07:47 AM 32.7000 133.8270 64° Northeast 560 644 36,700 1,259 Climbing FlightAware ADS-B
Fri 03:08:33 AM 32.7410 133.9580 70° East 565 650 37,500 1,200 Climbing FlightAware ADS-B
Fri 03:09:32 AM 32.7930 134.1340 71° East 561 646 38,800 938 Climbing FlightAware ADS-B
Fri 03:10:09 AM 32.8220 134.2330 71° East 559 643 39,000 160 Climbing FlightAware ADS-B
Fri 03:10:47 AM 32.8560 134.3500 71° East 560 644 39,000  Level FlightAware ADS-B
Fri 03:11:32 AM 32.8900 134.4690 71° East 563 648 39,000  Level FlightAware ADS-B
Fri 03:12:17 AM 32.9320 134.6130 71° East 563 648 39,000  Level FlightAware ADS-B
Fri 03:12:57 AM 32.9650 134.7290 71° East 566 651 39,000  Level FlightAware ADS-B
Fri 03:13:42 AM 33.0010 134.8540 71° East 567 652 39,000  Level FlightAware ADS-B
Fri 03:14:22 AM 33.0340 134.9730 72° East 566 651 39,000  Level FlightAware ADS-B
Fri 03:15:03 AM 33.0700 135.0980 71° East 567 652 39,000  Level FlightAware ADS-B
Fri 03:15:42 AM 33.1010 135.2180 73° East 565 650 39,000  Level FlightAware ADS-B
Fri 03:16:27 AM 33.1330 135.3480 74° East 563 648 39,000  Level FlightAware ADS-B
Fri 03:17:12 AM 33.1680 135.4870 73° East 561 646 39,000  Level FlightAware ADS-B
Fri 03:17:48 AM 33.1910 135.5800 74° East 562 647 39,000  Level FlightAware ADS-B
Fri 03:18:33 AM 33.2250 135.7180 74° East 562 647 39,000  Level FlightAware ADS-B
Fri 03:19:18 AM 33.2580 135.8510 73° East 563 648 39,000  Level FlightAware ADS-B
Fri 03:20:13 AM 33.2990 136.0180 74° East 563 648 39,000  Level FlightAware ADS-B
Fri 03:20:52 AM 33.3290 136.1410 74° East 562 647 39,000  Level FlightAware ADS-B
Fri 03:21:32 AM 33.3560 136.2490 73° East 562 647 39,000  Level FlightAware ADS-B
Fri 03:22:17 AM 33.3900 136.3890 74° East 563 648 39,000  Level FlightAware ADS-B
Fri 03:22:59 AM 33.4180 136.5090 74° East 561 646 39,000  Level FlightAware ADS-B
Fri 03:23:45 AM 33.4530 136.6520 74° East 559 643 39,000  Level FlightAware ADS-B
Fri 03:24:25 AM 33.4790 136.7640 74° East 549 632 39,000 -171 Level FlightAware ADS-B
Fri 03:24:55 AM 33.5010 136.8570 74° East 543 625 38,800 -700 Descending FlightAware ADS-B
Fri 03:25:25 AM 33.5210 136.9420 74° East 542 624 38,300 -640 Descending FlightAware ADS-B
Fri 03:26:10 AM 33.5520 137.0730 74° East 542 624 38,000 -214 Descending FlightAware ADS-B
Fri 03:26:49 AM 33.5820 137.1820 72° East 540 621 38,000  Level FlightAware ADS-B
Fri 03:27:35 AM 33.6470 137.2890 54° Northeast 518 596 38,000  Level FlightAware ADS-B
Fri 03:28:20 AM 33.7310 137.3730 40° Northeast 521 600 38,000  Level FlightAware ADS-B
Fri 03:28:55 AM 33.7910 137.4340 40° Northeast 521 600 38,000  Level FlightAware ADS-B
Fri 03:29:40 AM 33.8740 137.5310 44° Northeast 527 606 38,000  Level FlightAware ADS-B
Fri 03:30:20 AM 33.9280 137.6300 57° Northeast 531 611 38,000  Level FlightAware ADS-B
Fri 03:31:05 AM 33.9800 137.7420 61° Northeast 537 618 38,000  Level FlightAware ADS-B
Fri 03:31:50 AM 34.0230 137.8680 68° East 544 626 38,000 -450 Level FlightAware ADS-B
Fri 03:32:25 AM 34.0530 137.9620 69° East 540 621 37,400 -2,354 Descending FlightAware ADS-B
Fri 03:33:09 AM 34.0960 138.0980 69° East 551 634 34,900 -2,800 Descending FlightAware ADS-B
Fri 03:33:55 AM 34.1380 138.2290 69° East 542 624 33,200 -2,023 Descending FlightAware ADS-B
Fri 03:34:35 AM 34.1720 138.3360 69° East 528 608 32,000 -1,800 Descending FlightAware ADS-B
Fri 03:35:15 AM 34.2080 138.4510 69° East 516 594 30,800 -1,835 Descending FlightAware ADS-B
Fri 03:36:00 AM 34.2450 138.5700 69° East 509 586 29,400 -1,835 Descending FlightAware ADS-B
Fri 03:36:40 AM 34.2790 138.6760 69° East 500 575 28,200 -1,800 Descending FlightAware ADS-B
Fri 03:37:20 AM 34.3110 138.7790 69° East 489 563 27,000 -1,744 Descending FlightAware ADS-B
Fri 03:38:06 AM 34.3460 138.8940 70° East 481 554 25,700 -1,756 Descending FlightAware ADS-B
Fri 03:38:42 AM 34.3750 138.9870 69° East 478 550 24,600 -1,519 Descending FlightAware ADS-B
Fri 03:39:25 AM 34.4090 139.0860 67° East 463 533 23,700 -1,412 Descending FlightAware ADS-B
Fri 03:40:07 AM 34.4510 139.1850 63° Northeast 454 522 22,600 -1,586 Descending FlightAware ADS-B
Fri 03:40:52 AM 34.4950 139.2890 63° Northeast 438 504 21,400 -1,516 Descending FlightAware ADS-B
Fri 03:41:38 AM 34.5350 139.3860 63° Northeast 428 493 20,300 -1,395 Descending FlightAware ADS-B
Fri 03:42:18 AM 34.5720 139.4710 62° Northeast 409 471 19,400 -1,350 Descending FlightAware ADS-B
Fri 03:42:58 AM 34.6050 139.5510 63° Northeast 401 461 18,500 -1,425 Descending FlightAware ADS-B
Fri 03:43:38 AM 34.6370 139.6250 62° Northeast 395 455 17,500 -1,605 Descending FlightAware ADS-B
Fri 03:44:24 AM 34.6770 139.7210 63° Northeast 382 440 16,200 -1,650 Descending FlightAware ADS-B
Fri 03:47:00 AM 34.9900 139.7418 North  Level Estimated
Fri 03:48:00 AM 35.1104 139.7499 North  Level Estimated
Fri 03:48:18 AM 35.0040 139.8850 North 288 331 9,800  Level FlightAware ADS-B
Fri 03:48:33 AM 35.0230 139.8920 17° North 287 330 9,400 -1,429 Descending FlightAware ADS-B
Fri 03:49:00 AM 35.0570 139.9060 19° North 285 328 8,800 -1,667 Descending FlightAware ADS-B
Fri 03:49:27 AM 35.0930 139.9190 16° North 289 333 7,900 -1,698 Descending FlightAware ADS-B
Fri 03:49:53 AM 35.1290 139.9330 18° North 286 329 7,300 -1,245 Descending FlightAware ADS-B
Fri 03:50:20 AM 35.1590 139.9450 18° North 275 316 6,800 -1,065 Descending FlightAware ADS-B
Fri 03:51:57 AM 35.2760 139.9690 10° North 273 314 5,100 -823 Descending FlightAware ADS-B
Fri 03:52:24 AM 35.3080 139.9470 331° Northwest 232 267 5,100 -140 Level FlightAware ADS-B
Fri 03:52:40 AM 35.3210 139.9380 331° Northwest 224 258 5,000 -1,224 Descending FlightAware ADS-B
Fri 03:53:13 AM 35.3530 139.9160 331° Northwest 212 244 4,100 -1,263 Descending FlightAware ADS-B
Fri 03:53:56 AM 35.3890 139.8900 330° Northwest 204 235 3,400 -1,014 Descending FlightAware ADS-B
Fri 03:54:24 AM 35.4120 139.8740 330° Northwest 201 231 2,900 -1,059 Descending FlightAware ADS-B
Fri 03:54:30 AM 35.4160 139.8710 329° Northwest 200 230 2,800 -923 Descending FlightAware ADS-B
Fri 03:55:16 AM 35.4500 139.8470 330° Northwest 170 196 2,100 -900 Descending FlightAware ADS-B
Fri 03:56:10 AM 35.4840 139.8230 330° Northwest 153 176 1,300 -896 Descending FlightAware ADS-B
Fri 03:56:23 AM 35.4910 139.8180 330° Northwest 152 175 1,100 -682 Descending FlightAware ADS-B
Fri 03:56:54 AM 35.5080 139.8060 330° Northwest 150 173 800 -762 Descending FlightAware ADS-B
Fri 03:57:26 AM 35.5310 139.7890 329° Northwest 150 173 300 -462 Descending FlightAware ADS-B
Fri 03:57:59 AM 35.5470 139.7780 331° Northwest 150 173 300  Level FlightAware ADS-B
Fri 04:00:00 AM 35.5523 139.7797 15° North  Level Estimated
Fri 04:01:00 AM 35.5523 139.7797 122° Southeast  Level Estimated
Fri 04:01:24 AM 35.5620 139.7810 122° Southeast 14 16  Level FlightAware ADS-B
Fri 04:01:57 AM 35.5630 139.7840 68° East 14 16  Level FlightAware ADS-B
Fri 04:03:03 AM 35.5630 139.7860 90° East 7 8  Level FlightAware ADS-B
Fri 04:05:00 AM 35.5523 139.7797 206° Southwest  Level Estimated
Fri 04:05:00 AM 35.5600 139.7880 206° Southwest 17 20  Level FlightAware ADS-B
Fri 04:06:54 AM 35.5540 139.7900 221° Southwest 10 12  Level FlightAware ADS-B
Fri 04:07:00 AM 35.5523 139.7797 221° Southwest  Level Estimated
Fri 04:07:34 AM 35.5540 139.7880 270° West 6 7  Level FlightAware ADS-B

Login

Don't have an account? Register now (free) for customized features, flight alerts, and more!